sensor_id;sensor_type;location;lat;lon;timestamp;P1;durP1;ratioP1;P2;durP2;ratioP2
6610;SDS011;44111;46.692;13.664;2023-04-06T00:00:41;5.70;;;3.93;;
6610;SDS011;44111;46.692;13.664;2023-04-06T00:03:08;4.33;;;3.73;;
6610;SDS011;44111;46.692;13.664;2023-04-06T00:05:36;3.50;;;3.20;;
6610;SDS011;44111;46.692;13.664;2023-04-06T00:08:04;5.30;;;3.40;;
6610;SDS011;44111;46.692;13.664;2023-04-06T00:10:34;4.37;;;3.27;;
6610;SDS011;44111;46.692;13.664;2023-04-06T00:13:01;4.03;;;3.50;;
6610;SDS011;44111;46.692;13.664;2023-04-06T00:15:29;4.87;;;3.57;;
6610;SDS011;44111;46.692;13.664;2023-04-06T00:17:56;4.53;;;3.53;;
6610;SDS011;44111;46.692;13.664;2023-04-06T00:20:24;4.77;;;3.50;;
6610;SDS011;44111;46.692;13.664;2023-04-06T00:22:52;6.23;;;3.43;;
6610;SDS011;44111;46.692;13.664;2023-04-06T00:25:19;5.10;;;3.50;;
6610;SDS011;44111;46.692;13.664;2023-04-06T00:27:49;7.10;;;4.27;;
6610;SDS011;44111;46.692;13.664;2023-04-06T00:30:17;4.10;;;3.27;;
6610;SDS011;44111;46.692;13.664;2023-04-06T00:32:45;4.73;;;3.73;;
6610;SDS011;44111;46.692;13.664;2023-04-06T00:35:12;3.40;;;3.10;;
6610;SDS011;44111;46.692;13.664;2023-04-06T00:37:42;4.87;;;4.00;;
6610;SDS011;44111;46.692;13.664;2023-04-06T00:40:11;4.33;;;3.47;;
6610;SDS011;44111;46.692;13.664;2023-04-06T00:42:40;5.63;;;3.97;;
6610;SDS011;44111;46.692;13.664;2023-04-06T00:45:12;5.67;;;4.07;;
6610;SDS011;44111;46.692;13.664;2023-04-06T00:47:44;4.70;;;3.90;;
6610;SDS011;44111;46.692;13.664;2023-04-06T00:50:12;4.17;;;3.77;;
6610;SDS011;44111;46.692;13.664;2023-04-06T00:52:39;7.20;;;4.53;;
6610;SDS011;44111;46.692;13.664;2023-04-06T00:55:08;5.00;;;3.53;;
6610;SDS011;44111;46.692;13.664;2023-04-06T00:57:36;7.23;;;3.70;;
6610;SDS011;44111;46.692;13.664;2023-04-06T01:00:05;5.27;;;4.13;;
6610;SDS011;44111;46.692;13.664;2023-04-06T01:02:40;4.10;;;3.70;;
6610;SDS011;44111;46.692;13.664;2023-04-06T01:05:07;4.63;;;3.73;;
6610;SDS011;44111;46.692;13.664;2023-04-06T01:07:35;5.80;;;4.30;;
6610;SDS011;44111;46.692;13.664;2023-04-06T01:10:02;4.10;;;3.70;;
6610;SDS011;44111;46.692;13.664;2023-04-06T01:12:30;6.03;;;4.23;;
6610;SDS011;44111;46.692;13.664;2023-04-06T01:14:59;5.70;;;4.47;;
6610;SDS011;44111;46.692;13.664;2023-04-06T01:17:27;4.63;;;4.13;;
6610;SDS011;44111;46.692;13.664;2023-04-06T01:19:57;4.23;;;3.83;;
6610;SDS011;44111;46.692;13.664;2023-04-06T01:22:26;4.97;;;4.30;;
6610;SDS011;44111;46.692;13.664;2023-04-06T01:24:53;5.50;;;4.10;;
6610;SDS011;44111;46.692;13.664;2023-04-06T01:27:22;6.63;;;4.40;;
6610;SDS011;44111;46.692;13.664;2023-04-06T01:29:52;4.97;;;4.13;;
6610;SDS011;44111;46.692;13.664;2023-04-06T01:32:19;5.60;;;4.23;;
6610;SDS011;44111;46.692;13.664;2023-04-06T01:34:47;8.47;;;4.40;;
6610;SDS011;44111;46.692;13.664;2023-04-06T01:37:15;6.53;;;4.77;;
6610;SDS011;44111;46.692;13.664;2023-04-06T01:39:44;5.23;;;3.83;;
6610;SDS011;44111;46.692;13.664;2023-04-06T01:42:11;4.90;;;4.33;;
6610;SDS011;44111;46.692;13.664;2023-04-06T01:44:38;6.73;;;4.00;;
6610;SDS011;44111;46.692;13.664;2023-04-06T01:47:07;7.70;;;5.30;;
6610;SDS011;44111;46.692;13.664;2023-04-06T01:49:35;5.20;;;4.70;;
6610;SDS011;44111;46.692;13.664;2023-04-06T01:52:03;7.57;;;4.53;;
6610;SDS011;44111;46.692;13.664;2023-04-06T01:54:31;5.47;;;4.50;;
6610;SDS011;44111;46.692;13.664;2023-04-06T01:57:01;11.97;;;5.47;;
6610;SDS011;44111;46.692;13.664;2023-04-06T01:59:29;5.80;;;4.37;;
6610;SDS011;44111;46.692;13.664;2023-04-06T02:01:56;7.00;;;4.33;;
6610;SDS011;44111;46.692;13.664;2023-04-06T02:04:24;7.13;;;4.10;;
6610;SDS011;44111;46.692;13.664;2023-04-06T02:06:52;8.70;;;4.33;;
6610;SDS011;44111;46.692;13.664;2023-04-06T02:09:19;4.50;;;4.10;;
6610;SDS011;44111;46.692;13.664;2023-04-06T02:11:47;4.80;;;4.00;;
6610;SDS011;44111;46.692;13.664;2023-04-06T02:14:16;4.40;;;4.00;;
6610;SDS011;44111;46.692;13.664;2023-04-06T02:16:45;5.57;;;4.40;;
6610;SDS011;44111;46.692;13.664;2023-04-06T02:19:14;6.00;;;4.57;;
6610;SDS011;44111;46.692;13.664;2023-04-06T02:21:42;4.70;;;4.20;;
6610;SDS011;44111;46.692;13.664;2023-04-06T02:24:10;4.67;;;4.27;;
6610;SDS011;44111;46.692;13.664;2023-04-06T02:26:37;4.93;;;4.43;;
6610;SDS011;44111;46.692;13.664;2023-04-06T02:29:05;4.57;;;4.00;;
6610;SDS011;44111;46.692;13.664;2023-04-06T02:31:35;6.47;;;4.33;;
6610;SDS011;44111;46.692;13.664;2023-04-06T02:34:02;4.50;;;3.90;;
6610;SDS011;44111;46.692;13.664;2023-04-06T02:36:29;5.47;;;4.90;;
6610;SDS011;44111;46.692;13.664;2023-04-06T02:38:59;4.77;;;4.20;;
6610;SDS011;44111;46.692;13.664;2023-04-06T02:41:28;5.13;;;4.57;;
6610;SDS011;44111;46.692;13.664;2023-04-06T02:43:56;7.23;;;4.67;;
6610;SDS011;44111;46.692;13.664;2023-04-06T02:46:24;7.47;;;5.07;;
6610;SDS011;44111;46.692;13.664;2023-04-06T02:48:53;6.50;;;4.70;;
6610;SDS011;44111;46.692;13.664;2023-04-06T02:51:20;5.23;;;4.13;;
6610;SDS011;44111;46.692;13.664;2023-04-06T02:53:47;4.23;;;3.83;;
6610;SDS011;44111;46.692;13.664;2023-04-06T02:56:15;4.37;;;3.97;;
6610;SDS011;44111;46.692;13.664;2023-04-06T02:58:43;4.60;;;4.20;;
6610;SDS011;44111;46.692;13.664;2023-04-06T03:01:12;4.93;;;4.43;;
6610;SDS011;44111;46.692;13.664;2023-04-06T03:03:40;6.60;;;4.30;;
6610;SDS011;44111;46.692;13.664;2023-04-06T03:06:09;6.57;;;4.03;;
6610;SDS011;44111;46.692;13.664;2023-04-06T03:08:37;4.87;;;4.43;;
6610;SDS011;44111;46.692;13.664;2023-04-06T03:11:04;4.70;;;4.30;;
6610;SDS011;44111;46.692;13.664;2023-04-06T03:13:33;4.97;;;4.37;;
6610;SDS011;44111;46.692;13.664;2023-04-06T03:16:01;6.73;;;4.40;;
6610;SDS011;44111;46.692;13.664;2023-04-06T03:18:30;5.23;;;4.67;;
6610;SDS011;44111;46.692;13.664;2023-04-06T03:20:57;6.17;;;4.17;;
6610;SDS011;44111;46.692;13.664;2023-04-06T03:23:27;6.13;;;4.03;;
6610;SDS011;44111;46.692;13.664;2023-04-06T03:28:29;5.93;;;4.10;;
6610;SDS011;44111;46.692;13.664;2023-04-06T03:30:56;4.57;;;4.10;;
6610;SDS011;44111;46.692;13.664;2023-04-06T03:33:23;4.67;;;4.20;;
6610;SDS011;44111;46.692;13.664;2023-04-06T03:35:52;6.57;;;4.47;;
6610;SDS011;44111;46.692;13.664;2023-04-06T03:38:21;4.80;;;4.40;;
6610;SDS011;44111;46.692;13.664;2023-04-06T03:40:55;5.83;;;4.73;;
6610;SDS011;44111;46.692;13.664;2023-04-06T03:43:23;6.87;;;4.63;;
6610;SDS011;44111;46.692;13.664;2023-04-06T03:45:53;6.80;;;4.47;;
6610;SDS011;44111;46.692;13.664;2023-04-06T03:48:21;5.23;;;4.60;;
6610;SDS011;44111;46.692;13.664;2023-04-06T03:50:49;4.90;;;4.33;;
6610;SDS011;44111;46.692;13.664;2023-04-06T03:53:16;7.10;;;4.47;;
6610;SDS011;44111;46.692;13.664;2023-04-06T03:55:44;5.87;;;4.23;;
6610;SDS011;44111;46.692;13.664;2023-04-06T03:58:14;5.17;;;4.67;;
6610;SDS011;44111;46.692;13.664;2023-04-06T04:00:41;6.50;;;4.80;;
6610;SDS011;44111;46.692;13.664;2023-04-06T04:03:09;5.03;;;4.43;;
6610;SDS011;44111;46.692;13.664;2023-04-06T04:05:36;4.97;;;4.47;;
6610;SDS011;44111;46.692;13.664;2023-04-06T04:08:05;6.60;;;4.40;;
6610;SDS011;44111;46.692;13.664;2023-04-06T04:10:34;5.40;;;4.47;;
6610;SDS011;44111;46.692;13.664;2023-04-06T04:13:02;5.83;;;4.57;;
6610;SDS011;44111;46.692;13.664;2023-04-06T04:15:31;5.53;;;4.27;;
6610;SDS011;44111;46.692;13.664;2023-04-06T04:17:59;6.50;;;4.80;;
6610;SDS011;44111;46.692;13.664;2023-04-06T04:20:27;5.97;;;4.70;;
6610;SDS011;44111;46.692;13.664;2023-04-06T04:22:56;6.20;;;4.70;;
6610;SDS011;44111;46.692;13.664;2023-04-06T04:25:23;8.10;;;5.07;;
6610;SDS011;44111;46.692;13.664;2023-04-06T04:27:50;9.27;;;5.00;;
6610;SDS011;44111;46.692;13.664;2023-04-06T04:30:18;7.13;;;4.93;;
6610;SDS011;44111;46.692;13.664;2023-04-06T04:32:47;5.33;;;4.70;;
6610;SDS011;44111;46.692;13.664;2023-04-06T04:35:14;5.23;;;4.17;;
6610;SDS011;44111;46.692;13.664;2023-04-06T04:37:42;5.33;;;4.83;;
6610;SDS011;44111;46.692;13.664;2023-04-06T04:40:10;5.17;;;4.43;;
6610;SDS011;44111;46.692;13.664;2023-04-06T04:42:38;8.37;;;6.57;;
6610;SDS011;44111;46.692;13.664;2023-04-06T04:45:06;8.10;;;6.50;;
6610;SDS011;44111;46.692;13.664;2023-04-06T04:47:33;8.67;;;5.63;;
6610;SDS011;44111;46.692;13.664;2023-04-06T04:50:02;7.27;;;6.00;;
6610;SDS011;44111;46.692;13.664;2023-04-06T04:52:30;8.23;;;6.20;;
6610;SDS011;44111;46.692;13.664;2023-04-06T04:54:57;7.70;;;6.07;;
6610;SDS011;44111;46.692;13.664;2023-04-06T04:57:24;8.60;;;5.97;;
6610;SDS011;44111;46.692;13.664;2023-04-06T04:59:52;8.87;;;6.97;;
6610;SDS011;44111;46.692;13.664;2023-04-06T05:02:19;14.73;;;8.47;;
6610;SDS011;44111;46.692;13.664;2023-04-06T05:04:46;16.30;;;9.77;;
6610;SDS011;44111;46.692;13.664;2023-04-06T05:07:15;11.97;;;9.37;;
6610;SDS011;44111;46.692;13.664;2023-04-06T05:09:46;15.00;;;9.53;;
6610;SDS011;44111;46.692;13.664;2023-04-06T05:12:13;29.43;;;9.70;;
6610;SDS011;44111;46.692;13.664;2023-04-06T05:14:41;9.83;;;6.90;;
6610;SDS011;44111;46.692;13.664;2023-04-06T05:17:08;7.50;;;6.23;;
6610;SDS011;44111;46.692;13.664;2023-04-06T05:19:36;9.13;;;6.50;;
6610;SDS011;44111;46.692;13.664;2023-04-06T05:22:03;9.20;;;6.10;;
6610;SDS011;44111;46.692;13.664;2023-04-06T05:24:32;8.80;;;6.77;;
6610;SDS011;44111;46.692;13.664;2023-04-06T05:27:00;16.57;;;9.03;;
6610;SDS011;44111;46.692;13.664;2023-04-06T05:29:28;20.30;;;8.13;;
6610;SDS011;44111;46.692;13.664;2023-04-06T05:31:56;18.03;;;7.53;;
6610;SDS011;44111;46.692;13.664;2023-04-06T05:34:24;23.80;;;8.37;;
6610;SDS011;44111;46.692;13.664;2023-04-06T05:36:51;13.50;;;6.60;;
6610;SDS011;44111;46.692;13.664;2023-04-06T05:39:18;6.23;;;5.63;;
6610;SDS011;44111;46.692;13.664;2023-04-06T05:41:47;9.90;;;5.53;;
6610;SDS011;44111;46.692;13.664;2023-04-06T05:44:15;7.03;;;5.73;;
6610;SDS011;44111;46.692;13.664;2023-04-06T05:46:43;7.47;;;6.10;;
6610;SDS011;44111;46.692;13.664;2023-04-06T05:49:10;6.37;;;5.63;;
6610;SDS011;44111;46.692;13.664;2023-04-06T05:51:38;12.00;;;5.87;;
6610;SDS011;44111;46.692;13.664;2023-04-06T05:54:05;12.03;;;6.23;;
6610;SDS011;44111;46.692;13.664;2023-04-06T05:56:33;14.63;;;6.47;;
6610;SDS011;44111;46.692;13.664;2023-04-06T05:59:02;12.63;;;6.27;;
6610;SDS011;44111;46.692;13.664;2023-04-06T06:01:29;15.47;;;6.20;;
6610;SDS011;44111;46.692;13.664;2023-04-06T06:03:56;7.93;;;5.77;;
6610;SDS011;44111;46.692;13.664;2023-04-06T06:06:24;11.57;;;5.80;;
6610;SDS011;44111;46.692;13.664;2023-04-06T06:08:52;7.63;;;5.43;;
6610;SDS011;44111;46.692;13.664;2023-04-06T06:11:20;9.77;;;6.13;;
6610;SDS011;44111;46.692;13.664;2023-04-06T06:13:48;8.10;;;5.33;;
6610;SDS011;44111;46.692;13.664;2023-04-06T06:16:18;11.10;;;5.67;;
6610;SDS011;44111;46.692;13.664;2023-04-06T06:18:46;9.40;;;6.60;;
6610;SDS011;44111;46.692;13.664;2023-04-06T06:21:13;11.63;;;7.90;;
6610;SDS011;44111;46.692;13.664;2023-04-06T06:23:42;11.23;;;8.27;;
6610;SDS011;44111;46.692;13.664;2023-04-06T06:26:10;20.10;;;7.50;;
6610;SDS011;44111;46.692;13.664;2023-04-06T06:28:37;10.83;;;7.60;;
6610;SDS011;44111;46.692;13.664;2023-04-06T06:31:04;11.57;;;7.27;;
6610;SDS011;44111;46.692;13.664;2023-04-06T06:33:34;8.37;;;6.47;;
6610;SDS011;44111;46.692;13.664;2023-04-06T06:36:01;9.27;;;5.97;;
6610;SDS011;44111;46.692;13.664;2023-04-06T06:38:28;8.67;;;6.40;;
6610;SDS011;44111;46.692;13.664;2023-04-06T06:40:55;8.80;;;6.53;;
6610;SDS011;44111;46.692;13.664;2023-04-06T06:43:22;10.37;;;7.03;;
6610;SDS011;44111;46.692;13.664;2023-04-06T06:45:49;11.07;;;6.90;;
6610;SDS011;44111;46.692;13.664;2023-04-06T06:48:17;8.70;;;6.77;;
6610;SDS011;44111;46.692;13.664;2023-04-06T06:50:48;9.93;;;7.20;;
6610;SDS011;44111;46.692;13.664;2023-04-06T06:53:16;8.53;;;6.40;;
6610;SDS011;44111;46.692;13.664;2023-04-06T06:55:44;7.73;;;6.37;;
6610;SDS011;44111;46.692;13.664;2023-04-06T06:58:11;9.50;;;5.80;;
6610;SDS011;44111;46.692;13.664;2023-04-06T07:00:39;18.37;;;6.40;;
6610;SDS011;44111;46.692;13.664;2023-04-06T07:03:06;5.70;;;5.00;;
6610;SDS011;44111;46.692;13.664;2023-04-06T07:05:33;8.57;;;5.90;;
6610;SDS011;44111;46.692;13.664;2023-04-06T07:08:02;13.30;;;7.63;;
6610;SDS011;44111;46.692;13.664;2023-04-06T07:10:30;10.93;;;7.17;;
6610;SDS011;44111;46.692;13.664;2023-04-06T07:12:57;11.03;;;7.07;;
6610;SDS011;44111;46.692;13.664;2023-04-06T07:15:25;8.00;;;5.93;;
6610;SDS011;44111;46.692;13.664;2023-04-06T07:17:53;18.77;;;5.90;;
6610;SDS011;44111;46.692;13.664;2023-04-06T07:20:21;10.40;;;5.33;;
6610;SDS011;44111;46.692;13.664;2023-04-06T07:22:48;5.60;;;4.97;;
6610;SDS011;44111;46.692;13.664;2023-04-06T07:25:17;6.27;;;4.87;;
6610;SDS011;44111;46.692;13.664;2023-04-06T07:27:44;6.17;;;4.83;;
6610;SDS011;44111;46.692;13.664;2023-04-06T07:30:11;7.27;;;4.50;;
6610;SDS011;44111;46.692;13.664;2023-04-06T07:32:39;6.30;;;4.97;;
6610;SDS011;44111;46.692;13.664;2023-04-06T07:35:07;6.90;;;4.87;;
6610;SDS011;44111;46.692;13.664;2023-04-06T07:37:34;6.97;;;4.67;;
6610;SDS011;44111;46.692;13.664;2023-04-06T07:40:01;12.03;;;5.17;;
6610;SDS011;44111;46.692;13.664;2023-04-06T07:42:30;7.37;;;4.60;;
6610;SDS011;44111;46.692;13.664;2023-04-06T07:44:58;5.27;;;4.73;;
6610;SDS011;44111;46.692;13.664;2023-04-06T07:47:25;5.30;;;4.80;;
6610;SDS011;44111;46.692;13.664;2023-04-06T07:49:54;7.50;;;4.83;;
6610;SDS011;44111;46.692;13.664;2023-04-06T07:52:22;5.00;;;4.60;;
6610;SDS011;44111;46.692;13.664;2023-04-06T07:54:49;5.60;;;4.40;;
6610;SDS011;44111;46.692;13.664;2023-04-06T07:57:16;4.70;;;4.30;;
6610;SDS011;44111;46.692;13.664;2023-04-06T07:59:46;5.90;;;5.30;;
6610;SDS011;44111;46.692;13.664;2023-04-06T08:02:14;4.80;;;4.40;;
6610;SDS011;44111;46.692;13.664;2023-04-06T08:04:41;4.93;;;4.43;;
6610;SDS011;44111;46.692;13.664;2023-04-06T08:07:08;5.27;;;4.50;;
6610;SDS011;44111;46.692;13.664;2023-04-06T08:09:36;4.80;;;4.30;;
6610;SDS011;44111;46.692;13.664;2023-04-06T08:12:03;5.47;;;4.50;;
6610;SDS011;44111;46.692;13.664;2023-04-06T08:14:30;5.80;;;4.67;;
6610;SDS011;44111;46.692;13.664;2023-04-06T08:16:59;6.00;;;4.47;;
6610;SDS011;44111;46.692;13.664;2023-04-06T08:19:26;6.50;;;4.43;;
6610;SDS011;44111;46.692;13.664;2023-04-06T18:34:29;2.63;;;2.43;;
6610;SDS011;44111;46.692;13.664;2023-04-06T18:36:59;2.60;;;2.40;;
6610;SDS011;44111;46.692;13.664;2023-04-06T18:39:26;3.33;;;2.23;;
6610;SDS011;44111;46.692;13.664;2023-04-06T18:41:54;2.90;;;2.60;;
6610;SDS011;44111;46.692;13.664;2023-04-06T18:44:22;2.47;;;2.10;;
6610;SDS011;44111;46.692;13.664;2023-04-06T18:46:50;3.47;;;2.40;;
6610;SDS011;44111;46.692;13.664;2023-04-06T18:49:19;3.43;;;2.70;;
6610;SDS011;44111;46.692;13.664;2023-04-06T18:51:47;3.03;;;2.73;;
6610;SDS011;44111;46.692;13.664;2023-04-06T18:54:17;2.40;;;2.20;;
6610;SDS011;44111;46.692;13.664;2023-04-06T18:56:45;2.60;;;2.40;;
6610;SDS011;44111;46.692;13.664;2023-04-06T18:59:15;6.90;;;3.00;;
6610;SDS011;44111;46.692;13.664;2023-04-06T19:01:43;2.60;;;2.40;;
6610;SDS011;44111;46.692;13.664;2023-04-06T19:04:15;2.60;;;2.40;;
6610;SDS011;44111;46.692;13.664;2023-04-06T19:06:42;2.20;;;2.00;;
6610;SDS011;44111;46.692;13.664;2023-04-06T19:09:10;3.43;;;2.40;;
6610;SDS011;44111;46.692;13.664;2023-04-06T19:11:40;2.93;;;2.60;;
6610;SDS011;44111;46.692;13.664;2023-04-06T19:14:08;3.07;;;2.43;;
6610;SDS011;44111;46.692;13.664;2023-04-06T19:16:35;2.60;;;2.40;;
6610;SDS011;44111;46.692;13.664;2023-04-06T19:19:05;2.60;;;2.40;;
6610;SDS011;44111;46.692;13.664;2023-04-06T19:21:32;2.80;;;2.50;;
6610;SDS011;44111;46.692;13.664;2023-04-06T19:24:01;2.30;;;2.10;;
6610;SDS011;44111;46.692;13.664;2023-04-06T19:26:29;2.40;;;2.20;;
6610;SDS011;44111;46.692;13.664;2023-04-06T19:29:00;2.67;;;2.20;;
6610;SDS011;44111;46.692;13.664;2023-04-06T19:31:28;2.90;;;2.50;;
6610;SDS011;44111;46.692;13.664;2023-04-06T19:33:56;2.60;;;2.40;;
6610;SDS011;44111;46.692;13.664;2023-04-06T19:36:24;3.10;;;2.57;;
6610;SDS011;44111;46.692;13.664;2023-04-06T19:38:52;2.63;;;2.43;;
6610;SDS011;44111;46.692;13.664;2023-04-06T19:41:20;2.53;;;2.33;;
6610;SDS011;44111;46.692;13.664;2023-04-06T19:43:48;2.70;;;2.50;;
6610;SDS011;44111;46.692;13.664;2023-04-06T19:46:17;2.97;;;2.50;;
6610;SDS011;44111;46.692;13.664;2023-04-06T19:48:46;2.90;;;2.70;;
6610;SDS011;44111;46.692;13.664;2023-04-06T19:51:13;2.40;;;2.20;;
6610;SDS011;44111;46.692;13.664;2023-04-06T19:53:41;2.60;;;2.40;;
6610;SDS011;44111;46.692;13.664;2023-04-06T19:56:10;3.03;;;2.60;;
6610;SDS011;44111;46.692;13.664;2023-04-06T19:58:37;9.00;;;2.87;;
6610;SDS011;44111;46.692;13.664;2023-04-06T20:01:05;3.10;;;2.80;;
6610;SDS011;44111;46.692;13.664;2023-04-06T20:03:34;3.40;;;3.10;;
6610;SDS011;44111;46.692;13.664;2023-04-06T20:06:02;3.20;;;2.90;;
6610;SDS011;44111;46.692;13.664;2023-04-06T20:08:29;2.70;;;2.50;;
6610;SDS011;44111;46.692;13.664;2023-04-06T20:11:00;3.20;;;2.50;;
6610;SDS011;44111;46.692;13.664;2023-04-06T20:13:29;3.00;;;2.70;;
6610;SDS011;44111;46.692;13.664;2023-04-06T20:15:56;3.63;;;2.57;;
6610;SDS011;44111;46.692;13.664;2023-04-06T20:18:26;3.63;;;2.30;;
6610;SDS011;44111;46.692;13.664;2023-04-06T20:20:55;3.37;;;2.60;;
6610;SDS011;44111;46.692;13.664;2023-04-06T20:23:23;3.10;;;2.50;;
6610;SDS011;44111;46.692;13.664;2023-04-06T20:25:51;3.50;;;2.37;;
6610;SDS011;44111;46.692;13.664;2023-04-06T20:28:19;2.60;;;2.40;;
6610;SDS011;44111;46.692;13.664;2023-04-06T20:30:49;3.07;;;2.80;;
6610;SDS011;44111;46.692;13.664;2023-04-06T20:33:17;3.73;;;2.50;;
6610;SDS011;44111;46.692;13.664;2023-04-06T20:35:52;2.90;;;2.70;;
6610;SDS011;44111;46.692;13.664;2023-04-06T20:40:52;3.37;;;3.07;;
6610;SDS011;44111;46.692;13.664;2023-04-06T20:43:22;5.30;;;3.90;;
6610;SDS011;44111;46.692;13.664;2023-04-06T20:45:52;4.37;;;3.97;;
6610;SDS011;44111;46.692;13.664;2023-04-06T20:48:21;3.80;;;3.50;;
6610;SDS011;44111;46.692;13.664;2023-04-06T20:50:50;2.93;;;2.73;;
6610;SDS011;44111;46.692;13.664;2023-04-06T20:53:21;2.77;;;2.43;;
6610;SDS011;44111;46.692;13.664;2023-04-06T20:55:49;3.00;;;2.80;;
6610;SDS011;44111;46.692;13.664;2023-04-06T20:58:18;3.33;;;2.43;;
6610;SDS011;44111;46.692;13.664;2023-04-06T21:00:46;3.20;;;2.70;;
6610;SDS011;44111;46.692;13.664;2023-04-06T21:03:15;3.00;;;2.70;;
6610;SDS011;44111;46.692;13.664;2023-04-06T21:05:48;2.70;;;2.40;;
6610;SDS011;44111;46.692;13.664;2023-04-06T21:08:17;2.80;;;2.60;;
6610;SDS011;44111;46.692;13.664;2023-04-06T21:10:47;3.17;;;2.97;;
6610;SDS011;44111;46.692;13.664;2023-04-06T21:13:14;3.10;;;2.80;;
6610;SDS011;44111;46.692;13.664;2023-04-06T21:15:42;2.70;;;2.50;;
6610;SDS011;44111;46.692;13.664;2023-04-06T21:18:09;3.73;;;3.37;;
6610;SDS011;44111;46.692;13.664;2023-04-06T21:20:37;3.53;;;3.17;;
6610;SDS011;44111;46.692;13.664;2023-04-06T21:23:06;3.80;;;3.40;;
6610;SDS011;44111;46.692;13.664;2023-04-06T21:25:36;2.90;;;2.70;;
6610;SDS011;44111;46.692;13.664;2023-04-06T21:28:13;3.30;;;3.00;;
6610;SDS011;44111;46.692;13.664;2023-04-06T21:33:25;3.10;;;2.80;;
6610;SDS011;44111;46.692;13.664;2023-04-06T21:36:03;3.23;;;2.80;;
6610;SDS011;44111;46.692;13.664;2023-04-06T21:38:32;2.97;;;2.77;;
6610;SDS011;44111;46.692;13.664;2023-04-06T21:41:02;3.13;;;2.83;;
6610;SDS011;44111;46.692;13.664;2023-04-06T21:43:32;3.30;;;3.00;;
6610;SDS011;44111;46.692;13.664;2023-04-06T21:46:00;3.10;;;2.80;;
6610;SDS011;44111;46.692;13.664;2023-04-06T21:48:27;4.10;;;3.03;;
6610;SDS011;44111;46.692;13.664;2023-04-06T21:53:28;3.77;;;3.47;;
6610;SDS011;44111;46.692;13.664;2023-04-06T21:55:56;3.03;;;2.63;;
6610;SDS011;44111;46.692;13.664;2023-04-06T21:58:25;3.13;;;2.70;;
6610;SDS011;44111;46.692;13.664;2023-04-06T22:00:55;3.33;;;3.03;;
6610;SDS011;44111;46.692;13.664;2023-04-06T22:03:22;3.50;;;2.83;;
6610;SDS011;44111;46.692;13.664;2023-04-06T22:05:51;2.97;;;2.77;;
6610;SDS011;44111;46.692;13.664;2023-04-06T22:08:21;3.50;;;3.00;;
6610;SDS011;44111;46.692;13.664;2023-04-06T22:10:50;3.73;;;2.77;;
6610;SDS011;44111;46.692;13.664;2023-04-06T22:13:19;4.20;;;3.80;;
6610;SDS011;44111;46.692;13.664;2023-04-06T22:15:47;3.37;;;3.10;;
6610;SDS011;44111;46.692;13.664;2023-04-06T22:18:21;3.10;;;2.90;;
6610;SDS011;44111;46.692;13.664;2023-04-06T22:20:49;4.13;;;3.37;;
6610;SDS011;44111;46.692;13.664;2023-04-06T22:23:16;3.17;;;2.87;;
6610;SDS011;44111;46.692;13.664;2023-04-06T22:25:45;2.87;;;2.63;;
6610;SDS011;44111;46.692;13.664;2023-04-06T22:28:13;3.57;;;3.03;;
6610;SDS011;44111;46.692;13.664;2023-04-06T22:30:41;3.10;;;2.90;;
6610;SDS011;44111;46.692;13.664;2023-04-06T22:33:08;4.07;;;2.90;;
6610;SDS011;44111;46.692;13.664;2023-04-06T22:35:37;3.20;;;2.93;;
6610;SDS011;44111;46.692;13.664;2023-04-06T22:38:05;3.67;;;3.00;;
6610;SDS011;44111;46.692;13.664;2023-04-06T22:40:34;3.40;;;3.07;;
6610;SDS011;44111;46.692;13.664;2023-04-06T22:43:03;2.73;;;2.53;;
6610;SDS011;44111;46.692;13.664;2023-04-06T22:45:31;3.00;;;2.70;;
6610;SDS011;44111;46.692;13.664;2023-04-06T22:47:59;3.03;;;2.83;;
6610;SDS011;44111;46.692;13.664;2023-04-06T22:50:26;2.97;;;2.67;;
6610;SDS011;44111;46.692;13.664;2023-04-06T22:53:01;3.60;;;2.67;;
6610;SDS011;44111;46.692;13.664;2023-04-06T22:55:29;3.60;;;3.30;;
6610;SDS011;44111;46.692;13.664;2023-04-06T22:57:58;3.10;;;2.80;;
6610;SDS011;44111;46.692;13.664;2023-04-06T23:00:27;3.57;;;3.27;;
6610;SDS011;44111;46.692;13.664;2023-04-06T23:02:55;3.20;;;2.90;;
6610;SDS011;44111;46.692;13.664;2023-04-06T23:05:24;3.53;;;2.80;;
6610;SDS011;44111;46.692;13.664;2023-04-06T23:07:52;3.20;;;2.90;;
6610;SDS011;44111;46.692;13.664;2023-04-06T23:10:26;3.47;;;3.17;;
6610;SDS011;44111;46.692;13.664;2023-04-06T23:12:54;3.93;;;3.50;;
6610;SDS011;44111;46.692;13.664;2023-04-06T23:15:22;3.43;;;2.90;;
6610;SDS011;44111;46.692;13.664;2023-04-06T23:17:51;4.07;;;3.53;;
6610;SDS011;44111;46.692;13.664;2023-04-06T23:20:18;3.70;;;3.40;;
6610;SDS011;44111;46.692;13.664;2023-04-06T23:22:47;3.43;;;3.13;;
6610;SDS011;44111;46.692;13.664;2023-04-06T23:25:14;3.50;;;3.20;;
6610;SDS011;44111;46.692;13.664;2023-04-06T23:27:45;3.63;;;3.30;;
6610;SDS011;44111;46.692;13.664;2023-04-06T23:30:12;4.03;;;3.37;;
6610;SDS011;44111;46.692;13.664;2023-04-06T23:32:41;3.20;;;2.90;;
6610;SDS011;44111;46.692;13.664;2023-04-06T23:35:09;4.40;;;3.50;;
6610;SDS011;44111;46.692;13.664;2023-04-06T23:37:37;5.60;;;5.07;;
6610;SDS011;44111;46.692;13.664;2023-04-06T23:40:06;4.80;;;4.30;;
6610;SDS011;44111;46.692;13.664;2023-04-06T23:42:35;4.87;;;3.80;;
6610;SDS011;44111;46.692;13.664;2023-04-06T23:45:09;3.77;;;3.47;;
6610;SDS011;44111;46.692;13.664;2023-04-06T23:47:38;4.00;;;2.97;;
6610;SDS011;44111;46.692;13.664;2023-04-06T23:50:06;3.37;;;3.00;;
6610;SDS011;44111;46.692;13.664;2023-04-06T23:52:34;3.70;;;3.40;;
6610;SDS011;44111;46.692;13.664;2023-04-06T23:55:03;5.23;;;3.40;;
6610;SDS011;44111;46.692;13.664;2023-04-06T23:57:32;4.30;;;3.33;;
